To NAV CANADA Home Page Login to a new session Search on AWWS site Disclaimer Vers la page française équivalente Tips FAQ What's new on the site To the Forecasts and Observations / NOTAM section To "File a Flight Plan" website Publications and other links Update of the User's profile FIC Telephone Numbers My Weather Data Folder Route Weather Data Regional Weather Data Local Weather Data To the Forecasts and Observations / NOTAM section
Request Generated 10/02/2022 at 18:48:57 UTC . Weather information available at that time is displayed.

METAR/TAF

If you find any discrepancies between the coded METAR/TAF and the plain language METAR/TAF please use the coded METAR/TAF. LWIS bulletins are not decoded in plain language.

TORONTO/BILLY BISHOP TORONTO CITY AIRPORT/ON    (show WxCam)

METAR CYTZ 021800Z AUTO 06014KT 9SM CLR 12/03 A3035 RMK SLP280=
METAR
LOCATION
CYTZ - TORONTO/BILLY BISHOP TORONTO CITY A
DATE - TIME
02 OCTOBER 2022 - 1800 UTC
WIND
60 TRUE @ 14  KNOTS
VISIBILITY
9 STAT.  MILES
RUNWAY VISUAL RANGE
WEATHER
CLOUDINESS
CLEAR SKY
TEMP / DEWPOINT
12 C / 3 C
ALTIMETER
30.35 IN HG
RECENT WEATHER
WIND SHEAR

METAR CYTZ 021700Z AUTO 07015KT 9SM CLR 12/01 A3035 RMK SLP282=
METAR
LOCATION
CYTZ - TORONTO/BILLY BISHOP TORONTO CITY A
DATE - TIME
02 OCTOBER 2022 - 1700 UTC
WIND
70 TRUE @ 15  KNOTS
VISIBILITY
9 STAT.  MILES
RUNWAY VISUAL RANGE
WEATHER
CLOUDINESS
CLEAR SKY
TEMP / DEWPOINT
12 C / 1 C
ALTIMETER
30.35 IN HG
RECENT WEATHER
WIND SHEAR

METAR CYTZ 021600Z AUTO 06016KT 9SM CLR 11/03 A3036 RMK SLP284=
METAR
LOCATION
CYTZ - TORONTO/BILLY BISHOP TORONTO CITY A
DATE - TIME
02 OCTOBER 2022 - 1600 UTC
WIND
60 TRUE @ 16  KNOTS
VISIBILITY
9 STAT.  MILES
RUNWAY VISUAL RANGE
WEATHER
CLOUDINESS
CLEAR SKY
TEMP / DEWPOINT
11 C / 3 C
ALTIMETER
30.36 IN HG
RECENT WEATHER
WIND SHEAR

Your time UTC time
Weather data provided by Environment Canada and NAV CANADA